Time;durP1;ratioP1;P1;durP2;ratioP2;P2;SDS_P1;SDS_P2;PMS_P1;PMS_P2;Temp;Humidity;BMP_temperature;BMP_pressure;BME280_temperature;BME280_humidity;BME280_pressure;Samples;Min_cycle;Max_cycle;Signal;HPM_P1;HPM_P2
2022/07/23 00:00:47;;;;;;;1.63;0.50;;;16.50;99.90;;;;;;5053279;28;20672;-83
2022/07/23 00:03:12;;;;;;;1.00;0.40;;;16.40;99.90;;;;;;5053218;28;20196;-83
2022/07/23 00:05:38;;;;;;;1.40;0.20;;;16.40;99.90;;;;;;5053547;28;20418;-89
2022/07/23 00:08:04;;;;;;;1.17;0.30;;;16.40;99.90;;;;;;5053692;28;20406;-87
2022/07/23 00:10:33;;;;;;;1.10;0.20;;;16.40;99.90;;;;;;5053770;28;20198;-89
2022/07/23 00:12:58;;;;;;;0.60;0.30;;;16.40;99.90;;;;;;5053619;28;20748;-82
2022/07/23 00:15:24;;;;;;;0.60;0.20;;;16.40;99.90;;;;;;5049964;28;20457;-85
2022/07/23 00:17:50;;;;;;;1.23;0.20;;;16.40;99.90;;;;;;5052945;28;20168;-84
2022/07/23 00:20:16;;;;;;;1.17;0.40;;;16.30;99.90;;;;;;5052971;28;20218;-84
2022/07/23 00:23:07;;;;;;;0.50;0.20;;;16.40;99.90;;;;;;5053088;28;20918;-90
2022/07/23 00:25:33;;;;;;;0.40;0.23;;;16.30;99.90;;;;;;5050950;28;20227;-91
2022/07/23 00:28:00;;;;;;;0.83;0.20;;;16.30;99.90;;;;;;5052822;28;20941;-83
2022/07/23 00:30:29;;;;;;;0.87;0.20;;;16.30;99.90;;;;;;5053290;28;20182;-86
2022/07/23 00:32:59;;;;;;;1.33;0.60;;;16.30;99.90;;;;;;5051659;28;20422;-87
2022/07/23 00:35:28;;;;;;;1.50;0.20;;;16.30;99.90;;;;;;5052428;28;20823;-85
2022/07/23 00:37:54;;;;;;;0.80;0.30;;;16.30;99.90;;;;;;5052243;28;20422;-84
2022/07/23 00:40:20;;;;;;;0.87;0.50;;;16.30;99.90;;;;;;5051381;28;20480;-85
2022/07/23 00:42:45;;;;;;;0.43;0.20;;;16.20;99.90;;;;;;5051842;28;20933;-84
2022/07/23 00:45:11;;;;;;;3.47;0.30;;;16.30;99.90;;;;;;5052703;28;20180;-84
2022/07/23 00:47:37;;;;;;;4.10;0.20;;;16.20;99.90;;;;;;5053218;28;20168;-86
2022/07/23 00:50:07;;;;;;;2.40;0.20;;;16.20;99.90;;;;;;5051488;28;20186;-86
2022/07/23 00:52:34;;;;;;;0.80;0.20;;;16.10;99.90;;;;;;5051219;28;20553;-86
2022/07/23 00:55:03;;;;;;;2.37;0.53;;;16.10;99.90;;;;;;5052638;28;20452;-87
2022/07/23 00:57:28;;;;;;;0.40;0.20;;;16.10;99.90;;;;;;5052589;28;20905;-85
2022/07/23 00:59:54;;;;;;;0.83;0.20;;;16.10;99.90;;;;;;5053039;28;20465;-84
2022/07/23 01:02:20;;;;;;;0.60;0.20;;;16.10;99.90;;;;;;5052989;28;20179;-87
2022/07/23 01:04:46;;;;;;;0.70;0.20;;;16.10;99.90;;;;;;5051986;28;20542;-89
2022/07/23 01:07:11;;;;;;;0.87;0.20;;;16.10;99.90;;;;;;5052675;28;20174;-89
2022/07/23 01:09:37;;;;;;;1.30;0.27;;;16.10;99.90;;;;;;5052818;28;20770;-88
2022/07/23 01:12:03;;;;;;;0.60;0.30;;;16.10;99.90;;;;;;5052627;28;20190;-86
2022/07/23 01:14:29;;;;;;;1.23;0.20;;;16.00;99.90;;;;;;5052953;28;20405;-85
2022/07/23 01:16:54;;;;;;;1.70;0.30;;;16.00;99.90;;;;;;5052561;28;20647;-92
2022/07/23 01:19:20;;;;;;;3.70;0.30;;;16.00;99.90;;;;;;5050656;28;20196;-84
2022/07/23 01:21:51;;;;;;;0.57;0.30;;;16.00;99.90;;;;;;5084557;28;20648;-85
2022/07/23 01:24:19;;;;;;;0.63;0.20;;;16.00;99.90;;;;;;5051308;28;20497;-90
2022/07/23 01:26:46;;;;;;;0.83;0.23;;;15.90;99.90;;;;;;5052190;28;20457;-87
2022/07/23 01:29:12;;;;;;;0.47;0.20;;;15.90;99.90;;;;;;5050749;28;20460;-86
2022/07/23 01:31:39;;;;;;;1.00;0.20;;;16.00;99.90;;;;;;5050886;28;20422;-90
2022/07/23 01:34:06;;;;;;;0.37;0.20;;;16.00;99.90;;;;;;5051143;28;20424;-86
2022/07/23 01:36:33;;;;;;;0.80;0.30;;;16.00;99.90;;;;;;5050531;28;20471;-85
2022/07/23 01:38:58;;;;;;;0.53;0.20;;;15.90;99.90;;;;;;5050498;28;20411;-87
2022/07/23 01:41:24;;;;;;;1.00;0.20;;;15.90;99.90;;;;;;5052041;28;20425;-85
2022/07/23 01:43:49;;;;;;;0.40;0.20;;;15.80;99.90;;;;;;5052008;28;20172;-85
2022/07/23 01:46:15;;;;;;;0.40;0.20;;;15.80;99.90;;;;;;5051757;28;20957;-85
2022/07/23 01:48:40;;;;;;;1.00;0.30;;;15.80;99.90;;;;;;5085201;28;20594;-85
2022/07/23 01:51:06;;;;;;;0.90;0.50;;;15.70;99.90;;;;;;5054307;28;20244;-90
2022/07/23 01:53:32;;;;;;;0.60;0.20;;;15.80;99.90;;;;;;5055202;28;20177;-88
2022/07/23 01:55:58;;;;;;;0.77;0.30;;;15.70;99.90;;;;;;5056356;28;20666;-87
2022/07/23 01:58:25;;;;;;;1.23;0.67;;;15.70;99.90;;;;;;5056052;28;20166;-92
2022/07/23 02:00:51;;;;;;;0.43;0.20;;;15.60;99.90;;;;;;5055853;28;20521;-83
2022/07/23 02:03:16;;;;;;;0.87;0.30;;;15.60;99.90;;;;;;5056067;28;20484;-88
2022/07/23 02:05:42;;;;;;;0.47;0.20;;;15.60;99.90;;;;;;5055532;28;20171;-84
2022/07/23 02:08:07;;;;;;;1.70;0.20;;;15.60;99.90;;;;;;5055822;28;20255;-85
2022/07/23 02:10:33;;;;;;;1.13;0.20;;;15.60;99.90;;;;;;5055224;28;20171;-85
2022/07/23 02:12:58;;;;;;;0.90;0.20;;;15.60;99.90;;;;;;5054016;28;20169;-91
2022/07/23 02:15:24;;;;;;;0.70;0.20;;;15.60;99.90;;;;;;5055483;28;20178;-85
2022/07/23 02:17:50;;;;;;;1.03;0.33;;;15.60;99.90;;;;;;5055794;28;20166;-88
2022/07/23 02:20:15;;;;;;;1.27;0.50;;;15.60;99.90;;;;;;5055057;28;20206;-92
2022/07/23 02:22:41;;;;;;;1.00;0.23;;;15.60;99.90;;;;;;5055539;28;20189;-85
2022/07/23 02:25:07;;;;;;;1.07;0.20;;;15.60;99.90;;;;;;5055504;28;20171;-85
2022/07/23 02:27:33;;;;;;;0.50;0.20;;;15.60;99.90;;;;;;5055445;28;20168;-84
2022/07/23 02:29:59;;;;;;;0.40;0.30;;;15.50;99.90;;;;;;5055348;28;20421;-90
2022/07/23 02:32:25;;;;;;;0.60;0.23;;;15.50;99.90;;;;;;5055024;28;20424;-84
2022/07/23 02:34:51;;;;;;;0.50;0.30;;;15.40;99.90;;;;;;5054692;28;20567;-84
2022/07/23 02:37:17;;;;;;;0.87;0.20;;;15.40;99.90;;;;;;5054914;28;20175;-84
2022/07/23 02:39:43;;;;;;;0.80;0.20;;;15.30;99.90;;;;;;5053317;28;20210;-84
2022/07/23 02:42:09;;;;;;;1.03;0.50;;;15.20;99.90;;;;;;5053255;28;20175;-84
2022/07/23 02:44:35;;;;;;;1.47;0.30;;;15.10;99.90;;;;;;5054461;28;20454;-85
2022/07/23 02:47:00;;;;;;;0.40;0.20;;;15.10;99.90;;;;;;5053647;28;20655;-85
2022/07/23 02:49:26;;;;;;;0.40;0.30;;;15.00;99.90;;;;;;5054412;28;20263;-85
2022/07/23 02:51:51;;;;;;;1.17;0.50;;;15.00;99.90;;;;;;5054658;28;20708;-85
2022/07/23 02:54:17;;;;;;;0.57;0.27;;;14.90;99.90;;;;;;5053301;28;20631;-85
2022/07/23 02:56:42;;;;;;;0.93;0.20;;;14.90;99.90;;;;;;5053673;28;20178;-88
2022/07/23 02:59:08;;;;;;;0.60;0.20;;;14.90;99.90;;;;;;5054248;28;20169;-88
2022/07/23 03:01:34;;;;;;;1.03;0.40;;;14.90;99.90;;;;;;5055004;28;20170;-89
2022/07/23 03:04:00;;;;;;;0.60;0.20;;;14.90;99.90;;;;;;5054752;28;20199;-86
2022/07/23 03:06:25;;;;;;;0.40;0.20;;;14.80;99.90;;;;;;5055055;28;20413;-88
2022/07/23 03:08:51;;;;;;;0.50;0.20;;;14.80;99.90;;;;;;5054711;28;20173;-89
2022/07/23 03:11:16;;;;;;;0.50;0.20;;;14.80;99.90;;;;;;5054886;28;20207;-87
2022/07/23 03:13:42;;;;;;;0.50;0.30;;;14.80;99.90;;;;;;5054834;28;20170;-86
2022/07/23 03:16:07;;;;;;;1.93;0.37;;;14.80;99.90;;;;;;5053806;28;20197;-84
2022/07/23 03:18:33;;;;;;;1.43;0.30;;;14.80;99.90;;;;;;5053621;28;20707;-90
2022/07/23 03:20:59;;;;;;;0.80;0.20;;;14.70;99.90;;;;;;5054256;28;20284;-90
2022/07/23 03:23:25;;;;;;;0.47;0.20;;;14.70;99.90;;;;;;5054653;28;20639;-87
2022/07/23 03:25:50;;;;;;;0.70;0.20;;;14.70;99.90;;;;;;5054755;28;20171;-87
2022/07/23 03:28:16;;;;;;;2.10;0.57;;;14.70;99.90;;;;;;5054208;28;20300;-88
2022/07/23 03:30:45;;;;;;;0.70;0.30;;;14.70;99.90;;;;;;5054582;28;20209;-90
2022/07/23 03:33:10;;;;;;;0.70;0.20;;;14.70;99.90;;;;;;5053115;28;20512;-89
2022/07/23 03:35:36;;;;;;;0.60;0.40;;;14.60;99.90;;;;;;5054062;28;20984;-87
2022/07/23 03:38:01;;;;;;;1.00;0.40;;;14.60;99.90;;;;;;5054333;28;20165;-86
2022/07/23 03:40:27;;;;;;;1.47;0.30;;;14.60;99.90;;;;;;5054222;28;20581;-90
2022/07/23 03:42:52;;;;;;;0.60;0.40;;;14.60;99.90;;;;;;5054133;28;20174;-86
2022/07/23 03:45:18;;;;;;;0.50;0.30;;;14.60;99.90;;;;;;5053089;28;20327;-88
2022/07/23 03:47:44;;;;;;;1.30;0.53;;;14.60;99.90;;;;;;5053185;28;20162;-89
2022/07/23 03:50:10;;;;;;;1.23;0.50;;;14.60;99.90;;;;;;5054062;28;20234;-90
2022/07/23 03:52:35;;;;;;;3.00;0.27;;;14.60;99.90;;;;;;5054078;28;20495;-91
2022/07/23 03:55:01;;;;;;;1.37;0.20;;;14.60;99.90;;;;;;5054232;28;20432;-91
2022/07/23 03:57:27;;;;;;;1.60;0.27;;;14.60;99.90;;;;;;5054404;28;20169;-90
2022/07/23 03:59:52;;;;;;;3.20;0.40;;;14.60;99.90;;;;;;5054185;28;20503;-88
2022/07/23 04:02:18;;;;;;;0.90;0.40;;;14.60;99.90;;;;;;5054301;28;20529;-87
2022/07/23 04:04:43;;;;;;;0.40;0.20;;;14.60;99.90;;;;;;5053881;28;20184;-87
2022/07/23 04:07:09;;;;;;;0.77;0.20;;;14.60;99.90;;;;;;5054153;28;20177;-86
2022/07/23 04:09:34;;;;;;;1.30;0.40;;;14.80;99.90;;;;;;5053882;28;20173;-90
2022/07/23 04:12:01;;;;;;;5.00;0.37;;;14.80;99.90;;;;;;5053364;28;20670;-88
2022/07/23 04:14:26;;;;;;;1.03;0.30;;;14.80;99.90;;;;;;5053702;28;20192;-89
2022/07/23 04:16:52;;;;;;;0.70;0.20;;;14.80;99.90;;;;;;5053742;28;20417;-89
2022/07/23 04:19:17;;;;;;;0.50;0.20;;;14.90;99.90;;;;;;5052317;28;20212;-87
2022/07/23 04:21:43;;;;;;;0.77;0.47;;;15.00;99.90;;;;;;5053476;28;20176;-90
2022/07/23 04:24:08;;;;;;;2.40;0.40;;;15.00;99.90;;;;;;5053476;28;20170;-87
2022/07/23 04:26:34;;;;;;;0.63;0.30;;;15.00;99.90;;;;;;5053445;28;20303;-88
2022/07/23 04:28:59;;;;;;;0.83;0.30;;;15.10;99.90;;;;;;5051738;28;20245;-88
2022/07/23 04:31:26;;;;;;;1.80;0.30;;;15.10;99.90;;;;;;5053030;28;20201;-88
2022/07/23 04:33:51;;;;;;;2.70;0.33;;;15.10;99.90;;;;;;5052907;28;20411;-90
2022/07/23 04:36:17;;;;;;;1.10;0.27;;;15.10;99.90;;;;;;5053363;28;20177;-88
2022/07/23 04:38:42;;;;;;;0.50;0.20;;;15.10;99.90;;;;;;5053040;28;20213;-88
2022/07/23 04:41:07;;;;;;;1.23;0.30;;;15.00;99.90;;;;;;5053098;28;20700;-87
2022/07/23 04:43:33;;;;;;;0.80;0.50;;;15.00;99.90;;;;;;5053083;28;20177;-86
2022/07/23 04:45:59;;;;;;;1.27;0.57;;;15.10;99.90;;;;;;5053874;28;20756;-88
2022/07/23 04:48:24;;;;;;;0.50;0.20;;;15.10;99.90;;;;;;5056053;28;20199;-89
2022/07/23 04:50:50;;;;;;;1.30;0.30;;;15.20;99.90;;;;;;5054440;28;20573;-85
2022/07/23 04:53:15;;;;;;;0.60;0.40;;;15.20;99.90;;;;;;5053670;28;20610;-85
2022/07/23 04:55:41;;;;;;;1.43;0.40;;;15.20;99.90;;;;;;5053648;28;20178;-85
2022/07/23 04:58:06;;;;;;;0.80;0.30;;;15.20;99.90;;;;;;5051720;28;20182;-88
2022/07/23 05:00:32;;;;;;;2.20;0.87;;;15.20;99.90;;;;;;5052741;28;20213;-86
2022/07/23 05:02:57;;;;;;;1.30;0.90;;;15.20;99.90;;;;;;5051421;28;20169;-86
2022/07/23 05:05:23;;;;;;;2.10;0.63;;;15.20;99.90;;;;;;5052354;28;20205;-86
2022/07/23 05:07:48;;;;;;;0.90;0.33;;;15.10;99.90;;;;;;5051624;28;20606;-86
2022/07/23 05:10:14;;;;;;;2.40;0.63;;;15.10;99.90;;;;;;5051924;28;20166;-86
2022/07/23 05:12:39;;;;;;;2.50;0.53;;;15.10;99.90;;;;;;5051276;28;20180;-86
2022/07/23 05:15:05;;;;;;;1.00;0.43;;;15.10;99.90;;;;;;5052575;28;20179;-85
2022/07/23 05:17:31;;;;;;;0.90;0.40;;;15.10;99.90;;;;;;5051293;28;20173;-86
2022/07/23 05:19:56;;;;;;;3.90;0.97;;;15.10;99.90;;;;;;5052193;28;20551;-85
2022/07/23 05:22:22;;;;;;;0.73;0.60;;;15.10;99.90;;;;;;5053053;28;20171;-85
2022/07/23 05:24:47;;;;;;;1.10;0.50;;;15.10;99.90;;;;;;5056663;28;20692;-86
2022/07/23 05:27:13;;;;;;;2.00;0.50;;;15.10;99.90;;;;;;5056590;28;20189;-85
2022/07/23 05:29:38;;;;;;;2.13;0.30;;;15.10;99.90;;;;;;5056296;28;20219;-85
2022/07/23 05:32:04;;;;;;;1.00;0.30;;;15.10;99.90;;;;;;5056178;28;20184;-86
2022/07/23 05:34:30;;;;;;;5.30;1.00;;;15.10;99.90;;;;;;5055580;28;20170;-85
2022/07/23 05:36:55;;;;;;;0.67;0.30;;;15.10;99.90;;;;;;5054876;28;20170;-85
2022/07/23 05:39:21;;;;;;;1.17;0.30;;;15.20;99.90;;;;;;5056139;28;20178;-85
2022/07/23 05:41:46;;;;;;;1.07;0.93;;;15.30;99.90;;;;;;5054793;28;20639;-85
2022/07/23 05:44:12;;;;;;;1.20;0.90;;;15.40;99.90;;;;;;5056288;28;20170;-88
2022/07/23 05:46:37;;;;;;;2.53;1.03;;;15.50;99.90;;;;;;5055960;28;20170;-85
2022/07/23 05:49:03;;;;;;;1.90;0.30;;;15.60;99.90;;;;;;5055516;28;20171;-85
2022/07/23 05:51:28;;;;;;;1.67;0.50;;;15.60;99.90;;;;;;5055954;28;20195;-85
2022/07/23 05:53:54;;;;;;;1.30;0.50;;;15.70;99.90;;;;;;5055854;28;20176;-86
2022/07/23 05:56:19;;;;;;;0.77;0.50;;;15.70;99.90;;;;;;5055934;28;20182;-85
2022/07/23 05:58:45;;;;;;;2.10;0.50;;;15.70;99.90;;;;;;5054769;28;20175;-86
2022/07/23 06:01:14;;;;;;;0.90;0.50;;;15.70;99.90;;;;;;5055589;28;20210;-87
2022/07/23 06:03:39;;;;;;;1.47;0.83;;;15.70;99.90;;;;;;5054078;28;20647;-85
2022/07/23 06:06:05;;;;;;;2.43;0.40;;;15.80;99.90;;;;;;5055426;28;20448;-85
2022/07/23 06:08:31;;;;;;;1.47;0.80;;;15.90;99.90;;;;;;5055600;28;20174;-85
2022/07/23 06:10:56;;;;;;;1.90;0.80;;;15.90;99.90;;;;;;5055453;28;20403;-86
2022/07/23 06:13:22;;;;;;;1.67;0.83;;;16.00;99.90;;;;;;5055716;28;20164;-90
2022/07/23 06:15:48;;;;;;;1.47;0.20;;;16.10;99.90;;;;;;5054511;28;20168;-88
2022/07/23 06:18:13;;;;;;;1.43;0.60;;;16.40;99.90;;;;;;5055455;28;20234;-86
2022/07/23 06:20:39;;;;;;;1.97;0.53;;;16.70;99.90;;;;;;5053639;28;20652;-85
2022/07/23 06:23:05;;;;;;;1.83;0.70;;;16.60;99.90;;;;;;5054099;28;20175;-88
2022/07/23 06:25:30;;;;;;;2.40;0.33;;;16.50;99.90;;;;;;5054109;28;20185;-87
2022/07/23 06:27:56;;;;;;;1.00;0.30;;;16.40;99.90;;;;;;5055148;28;20293;-87
2022/07/23 06:30:22;;;;;;;1.10;0.63;;;16.50;99.90;;;;;;5055157;28;20231;-87
2022/07/23 06:32:48;;;;;;;1.37;0.30;;;16.60;99.90;;;;;;5055010;28;20646;-87
2022/07/23 06:35:14;;;;;;;0.97;0.30;;;16.60;99.90;;;;;;5054126;28;20505;-87
2022/07/23 06:37:39;;;;;;;1.00;0.40;;;16.60;99.90;;;;;;5055209;28;20763;-88
2022/07/23 06:40:05;;;;;;;0.80;0.40;;;16.70;99.90;;;;;;5055041;28;20461;-87
2022/07/23 06:42:31;;;;;;;0.53;0.20;;;16.70;99.90;;;;;;5087578;28;20189;-87
2022/07/23 06:44:57;;;;;;;0.87;0.50;;;16.80;99.90;;;;;;5055458;28;20484;-88
2022/07/23 06:47:22;;;;;;;0.73;0.20;;;17.10;99.90;;;;;;5053277;28;20648;-90
2022/07/23 06:49:48;;;;;;;2.00;0.60;;;17.10;99.90;;;;;;5053688;28;20187;-91
2022/07/23 06:52:13;;;;;;;0.70;0.30;;;17.30;99.90;;;;;;5054032;28;20527;-88
2022/07/23 06:54:38;;;;;;;1.73;0.27;;;17.40;99.90;;;;;;5053511;28;20179;-87
2022/07/23 06:57:04;;;;;;;3.00;0.53;;;17.60;29.80;;;;;;5053687;28;20251;-88
2022/07/23 06:59:30;;;;;;;1.07;0.20;;;17.70;1.00;;;;;;5053813;28;20214;-87
2022/07/23 07:01:55;;;;;;;0.90;0.50;;;17.70;1.00;;;;;;5053651;28;20185;-88
2022/07/23 07:04:20;;;;;;;0.60;0.20;;;17.60;1.00;;;;;;5053000;28;20663;-87
2022/07/23 07:06:46;;;;;;;0.80;0.23;;;17.50;1.00;;;;;;5068874;28;20270;-86
2022/07/23 07:09:11;;;;;;;2.60;0.30;;;17.40;1.00;;;;;;5054218;28;20175;-92
2022/07/23 07:11:37;;;;;;;0.40;0.20;;;17.30;1.00;;;;;;5054345;28;20177;-87
2022/07/23 07:14:04;;;;;;;0.57;0.40;;;17.30;1.00;;;;;;5053034;28;20163;-88
2022/07/23 07:16:29;;;;;;;1.37;0.23;;;17.30;1.00;;;;;;5053962;28;20162;-93
2022/07/23 07:18:55;;;;;;;0.73;0.20;;;17.30;1.00;;;;;;5053599;28;20942;-86
2022/07/23 07:21:20;;;;;;;0.50;0.20;;;17.30;4.40;;;;;;5053501;28;20208;-86
2022/07/23 07:23:46;;;;;;;0.47;0.20;;;17.40;1.00;;;;;;5053279;28;20649;-89
2022/07/23 07:26:11;;;;;;;1.00;0.40;;;17.40;1.00;;;;;;5051880;28;20176;-87
2022/07/23 07:28:37;;;;;;;0.80;0.70;;;17.60;1.00;;;;;;5052934;28;20303;-85
2022/07/23 07:31:02;;;;;;;0.47;0.30;;;17.70;1.00;;;;;;5053026;28;20177;-85
2022/07/23 07:33:28;;;;;;;1.70;0.53;;;18.00;99.90;;;;;;5052548;28;20170;-86
2022/07/23 07:35:54;;;;;;;0.80;0.30;;;18.20;99.90;;;;;;5053660;28;20169;-88
2022/07/23 07:38:19;;;;;;;0.80;0.33;;;18.50;1.00;;;;;;5053662;28;20825;-87
2022/07/23 07:40:45;;;;;;;0.87;0.20;;;18.60;99.90;;;;;;5053653;28;20645;-86
2022/07/23 07:43:10;;;;;;;1.17;0.27;;;18.60;1.00;;;;;;5053467;28;20574;-89
2022/07/23 07:45:36;;;;;;;0.60;0.20;;;18.80;1.00;;;;;;5052827;28;20177;-89
2022/07/23 07:48:01;;;;;;;1.00;0.40;;;18.70;1.00;;;;;;5052801;28;20238;-91
2022/07/23 07:50:27;;;;;;;0.70;0.40;;;18.60;99.90;;;;;;5052697;28;20183;-91
2022/07/23 07:52:53;;;;;;;0.43;0.20;;;18.50;99.90;;;;;;5051690;28;20624;-88
2022/07/23 07:55:18;;;;;;;0.30;0.20;;;18.40;1.00;;;;;;5052594;28;20526;-89
2022/07/23 07:57:44;;;;;;;1.53;0.23;;;18.30;1.00;;;;;;5047275;28;20177;-88
2022/07/23 08:00:10;;;;;;;1.03;0.60;;;18.70;99.90;;;;;;5052553;28;20208;-88
2022/07/23 08:02:41;;;;;;;0.50;0.20;;;19.00;1.00;;;;;;5051390;28;20267;-88
2022/07/23 08:05:07;;;;;;;0.40;0.20;;;19.10;99.90;;;;;;5051992;28;20413;-88
2022/07/23 08:07:32;;;;;;;0.50;0.20;;;19.10;99.90;;;;;;5052356;28;20762;-88
2022/07/23 08:09:58;;;;;;;2.77;0.20;;;19.20;99.90;;;;;;5052206;28;20181;-88
2022/07/23 08:12:23;;;;;;;0.40;0.20;;;19.10;1.00;;;;;;5051001;28;20261;-89
2022/07/23 08:14:49;;;;;;;0.40;0.20;;;19.30;99.90;;;;;;5052015;28;20239;-86
2022/07/23 08:17:14;;;;;;;1.23;0.20;;;19.40;99.90;;;;;;5052201;28;20200;-88
2022/07/23 08:19:40;;;;;;;0.50;0.20;;;20.20;99.90;;;;;;5051645;28;20198;-86
2022/07/23 08:22:05;;;;;;;0.90;0.20;;;21.80;1.00;;;;;;5050842;28;20169;-88
2022/07/23 08:24:31;;;;;;;0.30;0.20;;;23.40;99.90;;;;;;5052026;28;20176;-88
2022/07/23 08:26:56;;;;;;;0.47;0.47;;;23.00;99.90;;;;;;5051997;28;20180;-88
2022/07/23 08:29:21;;;;;;;0.70;0.20;;;24.50;99.90;;;;;;5051675;28;20256;-85
2022/07/23 08:31:47;;;;;;;0.40;0.20;;;23.40;99.90;;;;;;5052427;28;20718;-91
2022/07/23 08:34:12;;;;;;;0.30;0.20;;;22.20;99.90;;;;;;5052332;28;20166;-91
2022/07/23 08:36:38;;;;;;;0.40;0.10;;;20.90;99.90;;;;;;5052752;28;20737;-93
2022/07/23 08:39:03;;;;;;;0.40;0.20;;;19.80;99.90;;;;;;5052556;28;20256;-88
2022/07/23 08:41:29;;;;;;;0.43;0.20;;;19.20;1.00;;;;;;5053166;28;20215;-92
2022/07/23 08:43:55;;;;;;;0.40;0.20;;;18.80;1.00;;;;;;5052559;28;20317;-87
2022/07/23 08:46:21;;;;;;;0.40;0.20;;;18.40;1.00;;;;;;5053253;28;20659;-89
2022/07/23 08:48:48;;;;;;;0.47;0.20;;;18.40;99.90;;;;;;5084774;28;20457;-89
2022/07/23 08:51:14;;;;;;;0.73;0.40;;;18.50;99.90;;;;;;5051461;28;20421;-88
2022/07/23 08:53:41;;;;;;;0.50;0.20;;;18.40;99.90;;;;;;5052953;28;20432;-90
2022/07/23 08:56:07;;;;;;;0.40;0.20;;;18.10;99.90;;;;;;5052987;28;20223;-89
2022/07/23 08:58:33;;;;;;;0.50;0.20;;;18.20;1.00;;;;;;5055041;28;20447;-88
2022/07/23 09:00:59;;;;;;;0.30;0.20;;;18.00;99.90;;;;;;5056604;28;20499;-88
2022/07/23 09:03:34;;;;;;;0.60;0.20;;;18.00;1.00;;;;;;5056373;28;20182;-88
2022/07/23 09:06:03;;;;;;;0.53;0.30;;;18.00;99.90;;;;;;5056904;28;20419;-90
2022/07/23 09:08:41;;;;;;;0.30;0.20;;;18.10;99.90;;;;;;5055309;28;20782;-87
2022/07/23 09:11:12;;;;;;;0.93;0.20;;;18.10;99.90;;;;;;5056717;28;20414;-88
2022/07/23 09:13:46;;;;;;;0.50;0.20;;;18.30;18.20;;;;;;5056793;28;20779;-89
2022/07/23 09:16:18;;;;;;;0.70;0.20;;;18.60;1.00;;;;;;5056728;28;20419;-88
2022/07/23 09:19:06;;;;;;;0.40;0.20;;;18.80;99.90;;;;;;5056418;28;20756;-89
2022/07/23 09:21:32;;;;;;;0.83;0.20;;;18.90;1.00;;;;;;5056667;28;20478;-90
2022/07/23 09:24:01;;;;;;;1.30;0.20;;;18.80;1.00;;;;;;5056685;28;20810;-88
2022/07/23 09:26:29;;;;;;;0.40;0.20;;;18.70;1.00;;;;;;5056693;28;20458;-90
2022/07/23 09:29:02;;;;;;;0.70;0.20;;;18.60;99.90;;;;;;5056367;28;20976;-87
2022/07/23 09:31:50;;;;;;;0.40;0.20;;;18.60;99.90;;;;;;5054937;28;20404;-90
2022/07/23 09:34:23;;;;;;;0.40;0.20;;;18.50;99.90;;;;;;5047907;28;20427;-85
2022/07/23 09:36:50;;;;;;;0.30;0.23;;;18.80;99.90;;;;;;5048063;28;20425;-89
2022/07/23 09:39:24;;;;;;;0.50;0.30;;;18.90;99.90;;;;;;5054421;28;20446;-91
2022/07/23 09:41:50;;;;;;;0.60;0.20;;;19.10;1.00;;;;;;5061210;28;20432;-90
2022/07/23 09:44:18;;;;;;;0.40;0.20;;;19.30;9.40;;;;;;5057129;28;20418;-92
2022/07/23 09:46:48;;;;;;;1.17;0.33;;;19.50;1.00;;;;;;5059716;28;20170;-95
2022/07/23 09:49:22;;;;;;;0.50;0.20;;;19.40;99.90;;;;;;5057877;28;20488;-96
2022/07/23 09:51:49;;;;;;;0.37;0.20;;;19.40;1.00;;;;;;5069669;28;20428;-95
2022/07/23 09:54:27;;;;;;;0.60;0.20;;;19.80;1.00;;;;;;5067727;28;20833;-95
2022/07/23 09:56:54;;;;;;;0.40;0.20;;;20.00;1.00;;;;;;5061929;28;20413;-92
2022/07/23 09:59:28;;;;;;;0.40;0.23;;;20.30;99.90;;;;;;5062817;28;20437;-95
2022/07/23 10:01:56;;;;;;;1.37;0.40;;;20.20;99.90;;;;;;5060528;28;20426;-89
2022/07/23 10:04:23;;;;;;;0.90;0.20;;;20.20;1.00;;;;;;5055763;28;20461;-92
2022/07/23 10:06:52;;;;;;;0.50;0.20;;;20.70;1.00;;;;;;5057692;28;20431;-88
2022/07/23 10:09:24;;;;;;;0.70;0.20;;;21.70;1.00;;;;;;5057348;28;20767;-91
2022/07/23 10:11:50;;;;;;;0.40;0.20;;;22.70;99.90;;;;;;5057522;28;20443;-91
2022/07/23 10:14:17;;;;;;;0.40;0.20;;;22.80;99.90;;;;;;5056254;28;20905;-88
2022/07/23 10:16:43;;;;;;;0.50;0.20;;;22.30;99.90;;;;;;5057112;28;20403;-91
2022/07/23 10:19:09;;;;;;;1.23;0.20;;;21.80;99.90;;;;;;5055933;28;20418;-87
2022/07/23 10:21:47;;;;;;;0.50;0.20;;;21.90;99.90;;;;;;5065523;28;20470;-88
2022/07/23 10:24:50;;;;;;;0.77;0.27;;;21.60;99.90;;;;;;5061598;28;20176;-92
2022/07/23 10:27:34;;;;;;;0.43;0.20;;;21.50;99.90;;;;;;5069007;28;20434;-89
2022/07/23 10:30:06;;;;;;;0.47;0.20;;;21.40;99.90;;;;;;5061641;28;20477;-89
2022/07/23 10:32:45;;;;;;;1.30;0.30;;;21.60;99.90;;;;;;5053438;28;20546;-87
2022/07/23 10:35:38;;;;;;;0.40;0.20;;;21.20;99.90;;;;;;5053477;28;20418;-89
2022/07/23 10:38:20;;;;;;;0.97;0.30;;;20.90;99.90;;;;;;5054152;28;20472;-90
2022/07/23 10:40:55;;;;;;;0.50;0.20;;;20.90;99.90;;;;;;5052791;28;20473;-89
2022/07/23 10:43:20;;;;;;;1.20;0.20;;;20.60;99.90;;;;;;5052421;28;20455;-88
2022/07/23 10:45:46;;;;;;;0.50;0.20;;;20.70;99.90;;;;;;5054983;28;20826;-89
2022/07/23 10:48:21;;;;;;;0.50;0.33;;;20.90;99.90;;;;;;5052136;28;20198;-87
2022/07/23 10:51:08;;;;;;;0.50;0.20;;;21.10;99.90;;;;;;5052057;28;20178;-88
2022/07/23 10:53:52;;;;;;;2.50;0.20;;;22.20;99.90;;;;;;5051315;28;20418;-89
2022/07/23 10:56:49;;;;;;;0.40;0.20;;;22.60;99.90;;;;;;5053109;28;20450;-90
2022/07/23 10:59:15;;;;;;;1.10;0.23;;;22.90;87.90;;;;;;5054574;28;20425;-89
2022/07/23 11:01:40;;;;;;;0.40;0.20;;;23.00;63.40;;;;;;5055072;28;20762;-90
2022/07/23 11:04:07;;;;;;;0.50;0.20;;;22.90;70.20;;;;;;5054578;28;20257;-91
2022/07/23 11:06:56;;;;;;;0.40;0.20;;;22.50;40.30;;;;;;5054661;28;20257;-88
2022/07/23 11:09:28;;;;;;;0.30;0.20;;;22.60;34.90;;;;;;5049277;28;20955;-86
2022/07/23 11:12:12;;;;;;;0.40;0.20;;;22.70;35.40;;;;;;5054858;28;20420;-88
2022/07/23 11:15:05;;;;;;;1.00;0.30;;;24.40;27.30;;;;;;5053489;28;20423;-86
2022/07/23 11:17:34;;;;;;;0.63;0.20;;;24.00;11.70;;;;;;5054531;28;20435;-86
2022/07/23 11:20:09;;;;;;;0.40;0.20;;;24.10;13.90;;;;;;5055845;28;20480;-87
2022/07/23 11:22:44;;;;;;;0.40;0.20;;;25.20;5.50;;;;;;5054520;28;20464;-85
2022/07/23 11:25:28;;;;;;;0.70;0.20;;;25.20;6.30;;;;;;5054389;28;20883;-85
2022/07/23 11:27:55;;;;;;;0.47;0.20;;;26.20;8.20;;;;;;5053879;28;20505;-87
2022/07/23 11:30:26;;;;;;;0.57;0.20;;;25.10;1.00;;;;;;5054486;28;20424;-87
2022/07/23 11:33:15;;;;;;;0.40;0.20;;;24.50;1.00;;;;;;5053638;28;20408;-86
2022/07/23 11:35:42;;;;;;;0.30;0.20;;;23.70;1.00;;;;;;5047984;28;20424;-86
2022/07/23 11:38:14;;;;;;;1.00;0.20;;;22.80;5.00;;;;;;5053268;28;20416;-87
2022/07/23 11:40:43;;;;;;;0.40;0.20;;;22.30;15.90;;;;;;5052127;28;20474;-86
2022/07/23 11:43:10;;;;;;;0.30;0.20;;;21.90;35.50;;;;;;5054472;28;20948;-88
2022/07/23 11:45:47;;;;;;;0.67;0.20;;;22.50;56.60;;;;;;5053073;28;20534;-87
2022/07/23 11:48:21;;;;;;;0.50;0.20;;;23.50;41.90;;;;;;5053532;28;20414;-87
2022/07/23 11:50:48;;;;;;;0.40;0.20;;;23.30;25.00;;;;;;5052591;28;20434;-85
2022/07/23 11:53:20;;;;;;;0.40;0.20;;;23.00;19.20;;;;;;5053759;28;20412;-85
2022/07/23 11:55:46;;;;;;;0.60;0.20;;;22.70;24.60;;;;;;5053929;28;20973;-85
2022/07/23 11:58:11;;;;;;;0.40;0.20;;;22.20;23.90;;;;;;5053574;28;20412;-86
2022/07/23 12:00:41;;;;;;;0.63;0.20;;;23.40;35.30;;;;;;5053462;28;20214;-86
2022/07/23 12:03:07;;;;;;;0.40;0.20;;;25.10;19.70;;;;;;5053488;28;20174;-86
2022/07/23 12:05:35;;;;;;;0.50;0.20;;;25.90;1.00;;;;;;5053607;28;20473;-84
2022/07/23 12:08:02;;;;;;;0.30;0.20;;;26.50;1.00;;;;;;5053550;28;20780;-86
2022/07/23 12:10:38;;;;;;;0.40;0.20;;;26.80;1.00;;;;;;5053469;28;20424;-86
2022/07/23 12:13:11;;;;;;;0.40;0.20;;;26.20;1.00;;;;;;5050730;28;20791;-87
2022/07/23 12:15:43;;;;;;;0.40;0.20;;;24.80;1.00;;;;;;5044423;28;20420;-88
2022/07/23 12:18:11;;;;;;;0.60;0.20;;;23.80;1.00;;;;;;5032538;28;20413;-86
2022/07/23 12:20:41;;;;;;;0.70;0.20;;;23.10;1.00;;;;;;5043438;28;21106;-88
2022/07/23 12:23:08;;;;;;;1.37;0.20;;;22.50;1.00;;;;;;5082546;28;20427;-86
2022/07/23 12:25:36;;;;;;;0.50;0.33;;;22.00;2.90;;;;;;5052961;28;20428;-91
2022/07/23 12:28:15;;;;;;;0.40;0.20;;;21.70;22.30;;;;;;5052680;28;20496;-87
2022/07/23 12:30:49;;;;;;;0.50;0.20;;;21.40;58.80;;;;;;5052751;28;20792;-87
2022/07/23 12:33:22;;;;;;;0.60;0.30;;;20.80;99.90;;;;;;5050258;28;20463;-87
2022/07/23 12:35:48;;;;;;;0.60;0.23;;;20.70;99.90;;;;;;5051757;28;20976;-87
2022/07/23 12:38:16;;;;;;;1.07;0.43;;;20.60;99.90;;;;;;5052372;28;20502;-85
2022/07/23 12:40:56;;;;;;;0.40;0.20;;;20.60;99.90;;;;;;5051418;28;20692;-85
2022/07/23 12:43:26;;;;;;;0.70;0.40;;;21.00;99.90;;;;;;5052759;28;20484;-87
2022/07/23 12:46:01;;;;;;;0.70;0.50;;;21.90;99.90;;;;;;5052660;28;20402;-86
2022/07/23 12:48:28;;;;;;;0.40;0.20;;;22.60;99.90;;;;;;5052378;28;20463;-84
2022/07/23 12:51:01;;;;;;;0.70;0.20;;;22.70;99.90;;;;;;5051504;28;20444;-89